Time;durP1;ratioP1;P1;durP2;ratioP2;P2;SDS_P1;SDS_P2;PMS_P1;PMS_P2;Temp;Humidity;BMP_temperature;BMP_pressure;BME280_temperature;BME280_humidity;BME280_pressure;Samples;Min_cycle;Max_cycle;Signal;HPM_P1;HPM_P2
2022/12/12 00:00:16;;;;;;;112.05;27.30;;;;;;;-1.89;100.00;100976.94;5055596;28;20384;-49
2022/12/12 00:02:42;;;;;;;161.48;71.28;;;;;;;-2.10;100.00;100974.41;5055281;28;20460;-47
2022/12/12 00:05:09;;;;;;;177.63;74.70;;;;;;;-2.21;100.00;100978.59;5054841;28;20075;-48
2022/12/12 00:07:34;;;;;;;174.13;74.90;;;;;;;-2.22;100.00;100991.06;5055099;28;20487;-48
2022/12/12 00:10:00;;;;;;;176.18;73.95;;;;;;;-2.33;100.00;100982.63;5054837;28;20017;-47
2022/12/12 00:12:25;;;;;;;231.25;100.43;;;;;;;-2.41;100.00;100987.03;5055513;28;20464;-48
2022/12/12 00:14:51;;;;;;;106.45;28.65;;;;;;;-2.36;100.00;100983.25;5054772;28;20072;-49
2022/12/12 00:17:16;;;;;;;195.95;81.25;;;;;;;-2.62;100.00;100977.66;5055048;28;20108;-46
2022/12/12 00:19:42;;;;;;;179.15;77.80;;;;;;;-2.65;100.00;100980.78;5054976;28;20025;-47
2022/12/12 00:22:08;;;;;;;182.50;78.60;;;;;;;-2.74;100.00;100982.53;5055370;28;20024;-47
2022/12/12 00:24:33;;;;;;;179.88;77.60;;;;;;;-2.78;100.00;100978.88;5054226;28;20472;-48
2022/12/12 00:26:58;;;;;;;108.30;28.38;;;;;;;-2.72;100.00;100984.44;5054974;28;20457;-46
2022/12/12 00:29:23;;;;;;;174.90;77.55;;;;;;;-2.91;100.00;100976.94;5055121;28;20025;-47
2022/12/12 00:31:49;;;;;;;179.10;81.25;;;;;;;-2.96;100.00;100979.84;5054013;28;20029;-48
2022/12/12 00:34:14;;;;;;;172.02;76.85;;;;;;;-3.02;100.00;100981.06;5054907;28;20056;-48
2022/12/12 00:36:39;;;;;;;170.07;72.75;;;;;;;-3.20;100.00;100987.03;5054641;28;20032;-47
2022/12/12 00:39:06;;;;;;;193.55;80.82;;;;;;;-3.09;100.00;100988.84;5054415;28;20017;-46
2022/12/12 00:41:31;;;;;;;182.20;77.60;;;;;;;-3.17;100.00;100990.72;5054728;28;20052;-44
2022/12/12 00:43:56;;;;;;;185.32;78.40;;;;;;;-3.21;100.00;100997.88;5054865;28;20051;-48
2022/12/12 00:46:24;;;;;;;181.18;77.63;;;;;;;-3.32;100.00;100996.94;5054360;28;20033;-48
2022/12/12 00:48:52;;;;;;;188.20;80.75;;;;;;;-3.29;100.00;100991.28;5054213;28;20444;-48
2022/12/12 00:51:21;;;;;;;200.48;83.03;;;;;;;-3.31;100.00;100986.97;5054746;28;20025;-45
2022/12/12 00:53:47;;;;;;;189.13;82.45;;;;;;;-3.26;100.00;100989.03;5053829;28;20033;-48
2022/12/12 00:56:17;;;;;;;190.07;81.75;;;;;;;-3.33;100.00;100992.63;5054753;28;20117;-46
2022/12/12 00:58:43;;;;;;;198.05;84.20;;;;;;;-3.28;100.00;100995.56;5054493;28;20022;-46
2022/12/12 01:01:10;;;;;;;183.50;80.60;;;;;;;-3.44;100.00;100989.19;5054199;28;20025;-45
2022/12/12 01:03:38;;;;;;;186.40;82.50;;;;;;;-3.48;100.00;100992.19;5054111;28;20091;-48
2022/12/12 01:06:04;;;;;;;194.93;81.35;;;;;;;-3.53;100.00;100996.81;5054229;28;20044;-48
2022/12/12 01:08:29;;;;;;;196.85;82.18;;;;;;;-3.49;100.00;100995.47;5053819;28;20539;-47
2022/12/12 01:10:55;;;;;;;196.65;85.18;;;;;;;-3.48;100.00;101000.63;5053784;28;20064;-47
2022/12/12 01:13:21;;;;;;;193.00;80.15;;;;;;;-3.57;100.00;101012.41;5053697;28;20060;-48
2022/12/12 01:15:46;;;;;;;199.60;85.82;;;;;;;-3.59;100.00;101008.91;5053908;28;20104;-48
2022/12/12 01:18:13;;;;;;;110.22;29.48;;;;;;;-3.51;100.00;101018.00;5054334;28;20108;-48
2022/12/12 01:20:40;;;;;;;101.30;28.17;;;;;;;-3.50;100.00;101016.34;5053266;28;20136;-47
2022/12/12 01:23:05;;;;;;;79.00;24.45;;;;;;;-3.52;100.00;101020.41;5054198;28;20033;-45
2022/12/12 01:25:30;;;;;;;195.75;85.00;;;;;;;-3.61;100.00;101014.53;5054145;28;20032;-46
2022/12/12 01:27:56;;;;;;;197.63;86.75;;;;;;;-3.53;100.00;101014.44;5053399;28;20025;-47
2022/12/12 01:30:21;;;;;;;215.90;89.20;;;;;;;-3.51;100.00;101027.19;5053939;28;20025;-44
2022/12/12 01:32:47;;;;;;;199.90;82.93;;;;;;;-3.56;100.00;101031.84;5053733;28;20020;-48
2022/12/12 01:35:12;;;;;;;219.25;90.30;;;;;;;-3.48;100.00;101030.00;5053383;28;20063;-47
2022/12/12 01:37:39;;;;;;;202.55;88.97;;;;;;;-3.50;100.00;101034.00;5053475;28;20545;-48
2022/12/12 01:40:07;;;;;;;199.88;84.97;;;;;;;-3.60;100.00;101031.41;5053934;28;20029;-47
2022/12/12 01:42:32;;;;;;;197.55;86.40;;;;;;;-3.57;100.00;101036.75;5052823;28;20025;-45
2022/12/12 01:44:58;;;;;;;189.20;79.63;;;;;;;-3.68;100.00;101039.19;5052719;28;20499;-48
2022/12/12 01:47:25;;;;;;;105.63;27.65;;;;;;;-3.60;100.00;101036.44;5053768;28;20056;-47
2022/12/12 01:49:55;;;;;;;192.18;81.93;;;;;;;-3.70;100.00;101035.63;5052832;28;20230;-46
2022/12/12 01:52:25;;;;;;;199.57;83.30;;;;;;;-3.70;100.00;101039.78;5053599;28;20032;-45
2022/12/12 01:54:57;;;;;;;191.82;84.95;;;;;;;-3.77;100.00;101045.91;5053395;28;20161;-47
2022/12/12 01:57:31;;;;;;;198.15;83.63;;;;;;;-3.82;100.00;101042.97;5053010;28;20025;-47
2022/12/12 01:59:58;;;;;;;99.65;25.98;;;;;;;-3.77;100.00;101047.53;5053344;28;20040;-48
2022/12/12 02:02:24;;;;;;;112.55;28.02;;;;;;;-3.80;100.00;101048.16;5053304;28;20154;-46
2022/12/12 02:04:49;;;;;;;94.35;26.70;;;;;;;-3.84;100.00;101046.09;5052152;28;20127;-46
2022/12/12 02:07:16;;;;;;;191.95;83.32;;;;;;;-3.91;100.00;101043.75;5053262;28;20107;-47
2022/12/12 02:09:42;;;;;;;202.35;87.32;;;;;;;-3.90;100.00;101045.53;5052534;28;20025;-43
2022/12/12 02:12:12;;;;;;;213.13;89.00;;;;;;;-3.92;100.00;101052.09;5053213;28;20036;-48
2022/12/12 02:14:41;;;;;;;219.93;89.20;;;;;;;-3.86;100.00;101047.59;5053193;28;20029;-48
2022/12/12 02:17:25;;;;;;;214.82;91.57;;;;;;;-3.84;100.00;101051.13;5052541;28;20029;-46
2022/12/12 02:20:03;;;;;;;207.95;85.65;;;;;;;-3.84;100.00;101058.69;5052787;28;20025;-47
2022/12/12 02:23:05;;;;;;;208.70;90.18;;;;;;;-3.80;100.00;101060.75;5053369;28;20083;-48
2022/12/12 02:25:56;;;;;;;228.85;89.78;;;;;;;-3.78;100.00;101054.22;5052356;28;20024;-44
2022/12/12 02:28:49;;;;;;;224.20;92.50;;;;;;;-3.72;100.00;101052.25;5050312;28;20033;-47
2022/12/12 02:31:22;;;;;;;206.30;87.95;;;;;;;-3.82;100.00;101054.69;5052453;28;20025;-44
2022/12/12 02:34:01;;;;;;;212.20;87.05;;;;;;;-3.81;100.00;101056.44;5052397;28;20021;-47
2022/12/12 02:36:33;;;;;;;217.70;86.68;;;;;;;-3.88;100.00;101057.53;5053146;28;20024;-48
2022/12/12 02:39:09;;;;;;;204.10;80.90;;;;;;;-3.94;100.00;101061.13;5052436;28;20033;-47
2022/12/12 02:41:39;;;;;;;202.32;82.97;;;;;;;-3.98;100.00;101055.81;5052101;28;20040;-47
2022/12/12 02:44:05;;;;;;;196.82;83.47;;;;;;;-4.00;100.00;101064.84;5052513;28;20059;-48
2022/12/12 02:46:50;;;;;;;101.90;29.83;;;;;;;-3.92;100.00;101052.09;5052053;28;20056;-44
2022/12/12 02:49:48;;;;;;;104.07;25.42;;;;;;;-3.94;100.00;101048.53;5052668;28;20045;-47
2022/12/12 02:52:15;;;;;;;210.52;85.78;;;;;;;-4.04;100.00;101050.22;5050544;28;20044;-47
2022/12/12 02:54:40;;;;;;;114.45;27.48;;;;;;;-4.03;100.00;101059.56;5052012;28;20070;-47
2022/12/12 02:57:20;;;;;;;199.43;82.07;;;;;;;-4.17;100.00;101048.22;5052791;28;20025;-48
2022/12/12 02:59:51;;;;;;;193.10;81.03;;;;;;;-4.27;100.00;101049.72;5051858;28;20025;-48
2022/12/12 03:02:47;;;;;;;140.75;37.33;;;;;;;-4.17;100.00;101047.31;5052343;28;20100;-47
2022/12/12 03:08:36;;;;;;;127.47;29.63;;;;;;;-4.17;100.00;101045.69;5052637;28;20032;-45
2022/12/12 03:11:09;;;;;;;103.50;28.83;;;;;;;-4.16;100.00;101041.53;5052573;28;20033;-48
2022/12/12 03:13:37;;;;;;;226.20;88.68;;;;;;;-4.33;100.00;101045.03;5051914;28;20025;-48
2022/12/12 03:16:22;;;;;;;98.88;26.80;;;;;;;-4.25;100.00;101045.72;5052476;28;20028;-48
2022/12/12 03:19:06;;;;;;;217.65;85.82;;;;;;;-4.31;100.00;101046.94;5052239;28;20056;-46
2022/12/12 03:21:53;;;;;;;205.25;81.20;;;;;;;-4.35;100.00;101049.94;5051451;28;20068;-47
2022/12/12 03:24:37;;;;;;;194.00;80.43;;;;;;;-4.52;100.00;101043.34;5052350;28;20385;-46
2022/12/12 03:27:26;;;;;;;182.98;74.90;;;;;;;-4.64;100.00;101050.59;5052027;28;20069;-48
2022/12/12 03:30:10;;;;;;;185.55;75.78;;;;;;;-4.74;100.00;101053.00;5051746;28;20063;-44
2022/12/12 03:32:47;;;;;;;84.32;25.52;;;;;;;-4.64;100.00;101060.66;5051856;28;20049;-48
2022/12/12 03:35:21;;;;;;;215.10;85.10;;;;;;;-4.73;100.00;101053.91;5051951;28;20029;-46
2022/12/12 03:37:56;;;;;;;207.90;84.05;;;;;;;-4.77;100.00;101052.72;5051761;28;20033;-48
2022/12/12 03:40:31;;;;;;;228.40;91.00;;;;;;;-4.70;100.00;101052.56;5052003;28;20079;-46
2022/12/12 03:43:07;;;;;;;231.45;93.53;;;;;;;-4.64;100.00;101055.63;5051920;28;20029;-43
2022/12/12 03:45:46;;;;;;;230.45;93.32;;;;;;;-4.59;100.00;101053.56;5051925;28;20111;-48
2022/12/12 03:48:17;;;;;;;224.48;90.03;;;;;;;-4.75;100.00;101056.28;5051719;28;20044;-49
2022/12/12 03:50:48;;;;;;;211.18;85.00;;;;;;;-4.76;100.00;101058.63;5051557;28;20159;-47
2022/12/12 03:53:18;;;;;;;108.63;28.23;;;;;;;-4.69;100.00;101051.81;5052381;28;20150;-48
2022/12/12 03:55:51;;;;;;;100.82;26.30;;;;;;;-4.70;100.00;101057.59;5051416;28;20490;-46
2022/12/12 03:58:29;;;;;;;117.72;27.60;;;;;;;-4.71;100.00;101058.34;5051897;28;20033;-48
2022/12/12 04:00:57;;;;;;;221.38;87.32;;;;;;;-4.77;100.00;101057.75;5051851;28;20108;-48
2022/12/12 04:03:28;;;;;;;;;;;;;;;-4.68;100.00;101060.25;5051964;28;20540;-48
2022/12/12 04:15:27;;;;;;;190.50;78.18;;;;;;;-4.98;100.00;101067.56;5055916;28;20098;-46
2022/12/12 04:18:27;;;;;;;203.25;81.53;;;;;;;-5.00;100.00;101064.00;5054610;28;20051;-45
2022/12/12 04:24:16;;;;;;;208.63;83.75;;;;;;;-5.03;100.00;101068.75;5054579;28;20068;-47
2022/12/12 04:26:51;;;;;;;101.30;27.73;;;;;;;-5.00;100.00;101073.19;5054980;28;20024;-46
2022/12/12 04:29:35;;;;;;;211.48;83.88;;;;;;;-5.08;100.00;101069.94;5055106;28;20616;-44
2022/12/12 04:32:12;;;;;;;175.48;74.43;;;;;;;-5.23;100.00;101073.50;5054518;28;20430;-46
2022/12/12 04:34:43;;;;;;;182.68;75.45;;;;;;;-5.31;100.00;101073.66;5054836;28;20029;-48
2022/12/12 04:37:13;;;;;;;95.57;27.27;;;;;;;-5.22;100.00;101081.16;5055015;28;20029;-44
2022/12/12 04:39:41;;;;;;;207.43;84.60;;;;;;;-5.35;100.00;101079.09;5054313;28;20049;-47
2022/12/12 04:42:08;;;;;;;;;;;;;;;-5.23;100.00;101088.56;5055582;28;20108;-48
2022/12/12 04:44:35;;;;;;;;;;;;;;;-5.21;100.00;101092.13;5054519;28;19912;-46
2022/12/12 04:47:02;;;;;;;219.40;87.07;;;;;;;-5.33;100.00;101102.75;5054610;28;20348;-46
2022/12/12 04:49:31;;;;;;;95.65;25.67;;;;;;;-5.23;100.00;101096.97;5054705;28;20522;-46
2022/12/12 04:52:02;;;;;;;217.95;88.82;;;;;;;-5.37;100.00;101095.66;5054397;28;20082;-47
2022/12/12 04:54:33;;;;;;;208.30;86.40;;;;;;;-5.39;100.00;101087.09;5054588;28;20120;-46
2022/12/12 04:57:02;;;;;;;93.95;24.85;;;;;;;-5.32;100.00;101089.47;5054754;28;20031;-48
2022/12/12 04:59:28;;;;;;;99.22;27.58;;;;;;;-5.31;100.00;101085.31;5054054;28;20043;-47
2022/12/12 05:02:16;;;;;;;195.48;80.88;;;;;;;-5.38;100.00;101090.50;5054003;28;20469;-48
2022/12/12 05:04:51;;;;;;;205.95;85.07;;;;;;;-5.47;100.00;101093.00;5054068;28;20049;-48
2022/12/12 05:07:37;;;;;;;115.93;26.85;;;;;;;-5.39;100.00;101086.22;5054000;28;20025;-48
2022/12/12 05:10:06;;;;;;;216.95;88.97;;;;;;;-5.46;100.00;101087.25;5054457;28;20032;-48
2022/12/12 05:12:48;;;;;;;218.43;90.05;;;;;;;-5.43;100.00;101086.66;5053664;28;20036;-44
2022/12/12 05:15:18;;;;;;;209.50;86.20;;;;;;;-5.56;100.00;101084.56;5054243;28;20029;-47
2022/12/12 05:17:49;;;;;;;180.27;78.65;;;;;;;-5.61;100.00;101081.59;5053562;28;20117;-47
2022/12/12 05:20:15;;;;;;;178.80;78.55;;;;;;;-5.69;100.00;101075.84;5053262;28;20049;-46
2022/12/12 05:22:40;;;;;;;176.93;74.80;;;;;;;-5.73;100.00;101083.81;5053945;28;20428;-45
2022/12/12 05:25:06;;;;;;;177.93;78.45;;;;;;;-5.72;100.00;101085.59;5054194;28;20033;-43
2022/12/12 05:27:32;;;;;;;96.82;26.88;;;;;;;-5.65;100.00;101085.44;5053421;28;20028;-43
2022/12/12 05:29:57;;;;;;;208.75;88.30;;;;;;;-5.59;100.00;101081.75;5053984;28;20084;-44
2022/12/12 05:32:22;;;;;;;221.07;89.43;;;;;;;-5.61;100.00;101084.13;5054000;28;20062;-47
2022/12/12 05:34:48;;;;;;;201.65;86.80;;;;;;;-5.67;100.00;101083.50;5053025;28;20074;-46
2022/12/12 05:37:13;;;;;;;191.25;84.32;;;;;;;-5.71;100.00;101089.84;5053609;28;20024;-45
2022/12/12 05:39:38;;;;;;;206.63;87.03;;;;;;;-5.68;100.00;101092.69;5053732;28;20044;-46
2022/12/12 05:42:04;;;;;;;206.00;86.00;;;;;;;-5.72;100.00;101099.75;5053453;28;20027;-46
2022/12/12 05:44:29;;;;;;;205.70;86.75;;;;;;;-5.71;100.00;101099.88;5053631;28;20029;-48
2022/12/12 05:46:54;;;;;;;217.80;89.28;;;;;;;-5.64;100.00;101099.75;5053679;28;20029;-46
2022/12/12 05:49:20;;;;;;;212.48;90.38;;;;;;;-5.72;100.00;101103.16;5052942;28;20545;-43
2022/12/12 05:51:45;;;;;;;212.25;87.05;;;;;;;-5.65;100.00;101103.00;5053280;28;20048;-47
2022/12/12 05:54:10;;;;;;;211.75;87.70;;;;;;;-5.76;100.00;101100.19;5053735;28;20433;-47
2022/12/12 05:56:36;;;;;;;206.95;89.28;;;;;;;-5.76;100.00;101098.53;5052706;28;20033;-45
2022/12/12 05:59:01;;;;;;;202.35;88.65;;;;;;;-5.76;100.00;101101.06;5053638;28;20029;-43
2022/12/12 06:01:26;;;;;;;122.78;28.45;;;;;;;-5.69;100.00;101102.56;5053638;28;20021;-45
2022/12/12 06:03:52;;;;;;;172.13;77.78;;;;;;;-5.94;100.00;101105.16;5052185;28;20059;-45
2022/12/12 06:06:17;;;;;;;102.82;27.95;;;;;;;-5.80;100.00;101096.47;5053335;28;20025;-46
2022/12/12 06:08:42;;;;;;;169.52;74.13;;;;;;;-6.04;100.00;101099.97;5052386;28;20025;-43
2022/12/12 06:11:08;;;;;;;92.03;25.60;;;;;;;-5.91;100.00;101107.06;5053396;28;20025;-44
2022/12/12 06:13:33;;;;;;;169.73;75.25;;;;;;;-6.09;100.00;101102.03;5052992;28;20385;-45
2022/12/12 06:15:58;;;;;;;173.95;77.05;;;;;;;-6.16;100.00;101107.16;5052706;28;20431;-48
2022/12/12 06:18:24;;;;;;;159.48;71.28;;;;;;;-6.20;100.00;101105.09;5052937;28;20388;-45
2022/12/12 06:20:49;;;;;;;102.90;25.73;;;;;;;-6.10;100.00;101110.31;5052876;28;20135;-44
2022/12/12 06:23:14;;;;;;;76.03;22.80;;;;;;;-6.11;100.00;101121.06;5052779;28;20112;-46
2022/12/12 06:25:40;;;;;;;188.38;81.97;;;;;;;-6.06;100.00;101117.41;5052637;28;20029;-48
2022/12/12 06:28:05;;;;;;;116.35;30.17;;;;;;;-6.08;100.00;101113.88;5053038;28;20423;-43
2022/12/12 06:30:31;;;;;;;231.35;98.35;;;;;;;-6.07;100.00;101120.63;5052026;28;20029;-45
2022/12/12 06:32:56;;;;;;;108.40;32.97;;;;;;;-6.07;100.00;101125.66;5052778;28;20028;-47
2022/12/12 06:35:21;;;;;;;241.98;100.10;;;;;;;-6.18;100.00;101121.19;5052990;28;20024;-46
2022/12/12 06:37:50;;;;;;;251.55;110.50;;;;;;;-6.18;100.00;101122.06;5052233;28;20522;-48
2022/12/12 06:40:16;;;;;;;143.48;37.20;;;;;;;-6.11;100.00;101123.56;5052812;28;20025;-44
2022/12/12 06:42:41;;;;;;;135.07;34.58;;;;;;;-6.09;100.00;101124.63;5052653;28;20362;-47
2022/12/12 06:45:07;;;;;;;224.57;99.47;;;;;;;-6.24;100.00;101118.06;5052221;28;20492;-46
2022/12/12 06:47:32;;;;;;;213.35;97.05;;;;;;;-6.18;100.00;101129.59;5052266;28;20028;-43
2022/12/12 06:49:57;;;;;;;225.20;95.20;;;;;;;-6.16;100.00;101134.78;5052692;28;20025;-46
2022/12/12 06:52:23;;;;;;;106.93;28.50;;;;;;;-6.15;100.00;101137.44;5052283;28;20040;-48
2022/12/12 06:54:48;;;;;;;98.97;29.58;;;;;;;-6.16;100.00;101139.78;5052072;28;20136;-45
2022/12/12 06:57:14;;;;;;;184.85;80.18;;;;;;;-6.19;100.00;101144.50;5052885;28;20025;-47
2022/12/12 06:59:39;;;;;;;174.60;77.07;;;;;;;-6.33;100.00;101143.97;5051623;28;20033;-44
2022/12/12 07:02:05;;;;;;;187.68;83.60;;;;;;;-6.22;100.00;101146.69;5052892;28;20021;-43
2022/12/12 07:04:31;;;;;;;180.98;83.78;;;;;;;-6.17;100.00;101143.03;5052116;28;20053;-42
2022/12/12 07:06:57;;;;;;;100.57;27.08;;;;;;;-6.19;100.00;101145.38;5051923;28;20025;-45
2022/12/12 07:09:22;;;;;;;152.80;71.65;;;;;;;-6.34;100.00;101144.75;5052464;28;20027;-48
2022/12/12 07:11:47;;;;;;;84.07;24.92;;;;;;;-6.25;100.00;101153.91;5052316;28;20021;-44
2022/12/12 07:14:13;;;;;;;141.07;65.90;;;;;;;-6.58;100.00;101149.72;5051782;28;20123;-46
2022/12/12 07:16:38;;;;;;;147.38;67.68;;;;;;;-6.62;100.00;101159.47;5052137;28;20025;-46
2022/12/12 07:19:03;;;;;;;151.07;69.22;;;;;;;-6.69;100.00;101158.66;5051790;28;20047;-46
2022/12/12 07:21:29;;;;;;;136.82;64.55;;;;;;;-6.77;100.00;101160.38;5052046;28;20036;-47
2022/12/12 07:23:57;;;;;;;146.05;66.75;;;;;;;-6.79;100.00;101166.84;5052143;28;20025;-46
2022/12/12 07:26:23;;;;;;;144.98;67.97;;;;;;;-6.71;100.00;101171.03;5052004;28;20041;-45
2022/12/12 07:28:49;;;;;;;78.85;24.35;;;;;;;-6.65;100.00;101176.69;5052194;28;20090;-47
2022/12/12 07:31:17;;;;;;;166.77;75.05;;;;;;;-6.54;100.00;101176.91;5052289;28;20049;-45
2022/12/12 07:33:43;;;;;;;151.77;71.40;;;;;;;-6.62;100.00;101173.63;5051275;28;20025;-48
2022/12/12 07:36:09;;;;;;;85.70;25.48;;;;;;;-6.57;100.00;101174.97;5052254;28;20076;-47
2022/12/12 07:38:35;;;;;;;81.60;23.55;;;;;;;-6.58;100.00;101178.22;5052048;28;20016;-43
2022/12/12 07:41:12;;;;;;;75.68;23.33;;;;;;;-6.59;100.00;101173.06;5051795;28;20479;-44
2022/12/12 07:43:39;;;;;;;82.32;23.20;;;;;;;-6.63;100.00;101177.72;5055508;28;20472;-46
2022/12/12 07:46:07;;;;;;;76.05;22.63;;;;;;;-6.65;100.00;101181.72;5055972;28;20053;-47
2022/12/12 07:48:32;;;;;;;177.73;83.65;;;;;;;-6.63;100.00;101179.34;5055308;28;20082;-43
2022/12/12 07:51:02;;;;;;;118.10;30.95;;;;;;;-6.58;100.00;101187.34;5055879;28;20108;-45
2022/12/12 07:53:27;;;;;;;104.70;28.30;;;;;;;-6.56;100.00;101181.75;5056118;28;20052;-47
2022/12/12 07:55:53;;;;;;;92.38;27.25;;;;;;;-6.56;100.00;101184.25;5054965;28;20460;-48
2022/12/12 07:58:18;;;;;;;177.75;77.85;;;;;;;-6.56;100.00;101185.88;5055990;28;20025;-45
2022/12/12 08:00:44;;;;;;;82.80;26.40;;;;;;;-6.53;100.00;101187.09;5055271;28;20025;-44
2022/12/12 08:03:09;;;;;;;162.82;73.55;;;;;;;-6.59;100.00;101185.59;5055084;28;20025;-47
2022/12/12 08:05:38;;;;;;;87.85;24.83;;;;;;;-6.51;100.00;101190.63;5055061;28;20072;-45
2022/12/12 08:08:04;;;;;;;170.43;71.78;;;;;;;-6.52;100.00;101198.00;5055687;28;20059;-46
2022/12/12 08:10:29;;;;;;;94.85;25.23;;;;;;;-6.45;100.00;101196.28;5054677;28;20115;-45
2022/12/12 08:12:54;;;;;;;201.55;90.50;;;;;;;-6.49;100.00;101198.34;5055222;28;20029;-44
2022/12/12 08:15:20;;;;;;;171.95;77.13;;;;;;;-6.47;100.00;101196.84;5054591;28;20060;-44
2022/12/12 08:17:45;;;;;;;88.32;25.52;;;;;;;-6.35;100.00;101203.16;5054879;28;20036;-48
2022/12/12 08:20:11;;;;;;;170.32;76.88;;;;;;;-6.26;100.00;101194.78;5055569;28;20461;-46
2022/12/12 08:22:36;;;;;;;206.68;90.65;;;;;;;-6.18;100.00;101196.47;5054429;28;20104;-44
2022/12/12 08:25:01;;;;;;;177.50;81.95;;;;;;;-6.17;100.00;101203.22;5054950;28;20036;-46
2022/12/12 08:27:27;;;;;;;174.68;78.55;;;;;;;-6.15;100.00;101207.66;5055405;28;20349;-45
2022/12/12 08:29:53;;;;;;;167.85;72.55;;;;;;;-6.14;100.00;101209.47;5054302;28;20607;-45
2022/12/12 08:32:18;;;;;;;180.20;73.65;;;;;;;-6.02;100.00;101202.28;5054884;28;20036;-46
2022/12/12 08:34:44;;;;;;;97.95;24.60;;;;;;;-5.97;100.00;101203.59;5054732;28;20024;-43
2022/12/12 08:37:09;;;;;;;91.47;22.50;;;;;;;-5.88;100.00;101212.81;5054770;28;20115;-43
2022/12/12 08:39:35;;;;;;;90.78;23.35;;;;;;;-5.82;100.00;101213.44;5054425;28;20029;-44
2022/12/12 08:42:01;;;;;;;172.25;69.82;;;;;;;-5.64;100.00;101215.28;5054941;28;20032;-47
2022/12/12 08:44:26;;;;;;;175.73;69.45;;;;;;;-5.59;100.00;101212.31;5054230;28;20021;-45
2022/12/12 08:46:51;;;;;;;75.25;20.58;;;;;;;-5.56;100.00;101213.53;5054482;28;20048;-48
2022/12/12 08:49:17;;;;;;;157.88;65.25;;;;;;;-5.51;100.00;101209.84;5054937;28;20021;-48
2022/12/12 08:51:42;;;;;;;169.00;65.93;;;;;;;-5.40;100.00;101213.41;5054102;28;20146;-45
2022/12/12 08:54:10;;;;;;;196.63;86.15;;;;;;;-5.38;100.00;101213.59;5054355;28;20028;-48
2022/12/12 08:56:35;;;;;;;172.18;66.32;;;;;;;-5.25;100.00;101215.66;5054415;28;20029;-47
2022/12/12 08:59:01;;;;;;;148.60;59.78;;;;;;;-5.26;100.00;101211.41;5053691;28;20083;-47
2022/12/12 09:01:26;;;;;;;161.05;64.05;;;;;;;-5.21;100.00;101217.75;5054655;28;20032;-47
2022/12/12 09:03:54;;;;;;;159.23;66.50;;;;;;;-5.16;100.00;101219.09;5054233;28;20032;-44
2022/12/12 09:06:21;;;;;;;164.65;70.20;;;;;;;-5.13;100.00;101219.38;5053862;28;20033;-44
2022/12/12 09:08:46;;;;;;;166.50;68.67;;;;;;;-5.10;100.00;101221.31;5054269;28;20048;-44
2022/12/12 09:11:12;;;;;;;154.57;61.75;;;;;;;-5.05;100.00;101220.13;5054336;28;20052;-44
2022/12/12 09:13:39;;;;;;;156.27;61.33;;;;;;;-5.06;100.00;101228.41;5053227;28;20036;-44
2022/12/12 09:16:06;;;;;;;73.57;21.92;;;;;;;-4.98;100.00;101228.44;5054550;28;20029;-43
2022/12/12 09:18:32;;;;;;;153.45;60.15;;;;;;;-4.90;100.00;101228.31;5053971;28;20492;-46
2022/12/12 09:20:58;;;;;;;161.68;62.65;;;;;;;-4.91;100.00;101229.03;5053573;28;20021;-47
2022/12/12 09:23:25;;;;;;;93.72;21.77;;;;;;;-4.87;100.00;101229.47;5054177;28;20021;-46
2022/12/12 09:25:50;;;;;;;153.63;58.57;;;;;;;-4.82;100.00;101224.91;5053229;28;20195;-46
2022/12/12 09:28:18;;;;;;;72.90;22.27;;;;;;;-4.75;100.00;101231.41;5053849;28;20372;-48
2022/12/12 09:30:45;;;;;;;170.48;65.07;;;;;;;-4.71;100.00;101231.84;5053955;28;20123;-48
2022/12/12 09:33:11;;;;;;;82.57;22.77;;;;;;;-4.65;100.00;101229.94;5053592;28;20056;-44
2022/12/12 09:35:37;;;;;;;158.95;57.83;;;;;;;-4.59;100.00;101232.16;5053454;28;20372;-46
2022/12/12 09:38:03;;;;;;;152.23;57.08;;;;;;;-4.54;100.00;101230.09;5053950;28;20535;-47
2022/12/12 09:40:49;;;;;;;152.93;58.40;;;;;;;-4.50;100.00;101224.59;5053323;28;20064;-47
2022/12/12 09:43:19;;;;;;;80.30;20.13;;;;;;;-4.43;100.00;101231.97;5054028;28;20036;-48
2022/12/12 09:45:45;;;;;;;156.68;56.97;;;;;;;-4.36;100.00;101220.91;5053406;28;20464;-46
2022/12/12 09:48:29;;;;;;;77.65;19.80;;;;;;;-4.32;100.00;101216.28;5053107;28;20033;-46
2022/12/12 09:50:55;;;;;;;151.93;55.08;;;;;;;-4.27;100.00;101218.34;5053379;28;20100;-49
2022/12/12 09:53:24;;;;;;;160.55;56.28;;;;;;;-4.16;100.00;101220.25;5053463;28;20112;-48
2022/12/12 09:55:59;;;;;;;158.30;55.72;;;;;;;-4.02;100.00;101222.44;5052713;28;20025;-48
2022/12/12 09:58:41;;;;;;;154.18;55.13;;;;;;;-3.84;100.00;101212.31;5053457;28;20375;-47
2022/12/12 10:01:31;;;;;;;144.60;53.42;;;;;;;-3.59;100.00;101207.91;5053012;28;20041;-49
2022/12/12 10:04:28;;;;;;;157.88;57.25;;;;;;;-3.34;100.00;101208.50;5052969;28;20377;-49
2022/12/12 10:07:31;;;;;;;148.63;52.83;;;;;;;-3.16;100.00;101208.41;5045361;28;20175;-45
2022/12/12 10:10:35;;;;;;;156.07;57.00;;;;;;;-2.94;100.00;101211.22;5040194;28;20029;-46
2022/12/12 10:13:02;;;;;;;144.95;54.60;;;;;;;-2.81;100.00;101215.72;5053454;28;20033;-48
2022/12/12 10:15:38;;;;;;;152.93;52.65;;;;;;;-2.71;100.00;101212.38;5052649;28;20485;-43
2022/12/12 10:18:08;;;;;;;149.93;51.67;;;;;;;-2.74;100.00;101212.97;5053081;28;20387;-48
2022/12/12 10:20:42;;;;;;;113.53;25.35;;;;;;;-2.57;100.00;101214.50;5052713;28;20021;-47
2022/12/12 10:23:17;;;;;;;247.20;110.93;;;;;;;-2.57;100.00;101214.50;5052462;28;20033;-48
2022/12/12 10:25:52;;;;;;;239.80;102.63;;;;;;;-2.55;100.00;101209.59;5052623;28;20025;-47
2022/12/12 10:28:20;;;;;;;100.70;25.48;;;;;;;-2.34;100.00;101218.13;5052956;28;20029;-43
2022/12/12 10:30:45;;;;;;;146.70;51.63;;;;;;;-2.26;100.00;101214.66;5051854;28;20029;-46
2022/12/12 10:33:21;;;;;;;141.75;51.75;;;;;;;-2.27;100.00;101217.03;5053085;28;20029;-47
2022/12/12 10:35:55;;;;;;;158.43;57.58;;;;;;;-2.18;100.00;101215.31;5052818;28;20025;-46
2022/12/12 10:38:56;;;;;;;174.65;63.90;;;;;;;-2.17;100.00;101212.03;5052357;28;20044;-48
2022/12/12 10:41:42;;;;;;;158.93;58.30;;;;;;;-2.06;100.00;101211.31;5052911;28;20029;-49
2022/12/12 10:44:10;;;;;;;227.77;90.47;;;;;;;-2.04;100.00;101199.72;5051967;28;20448;-47
2022/12/12 10:46:54;;;;;;;152.52;54.88;;;;;;;-1.93;100.00;101195.56;5052274;28;20473;-48
2022/12/12 10:49:22;;;;;;;192.65;74.22;;;;;;;-1.75;100.00;101191.19;5052624;28;20033;-46
2022/12/12 10:51:49;;;;;;;140.95;50.53;;;;;;;-1.52;100.00;101189.72;5051803;28;20053;-49
2022/12/12 10:54:21;;;;;;;118.65;35.15;;;;;;;-1.29;100.00;101190.72;5052797;28;20028;-48
2022/12/12 10:57:02;;;;;;;130.38;46.90;;;;;;;-1.19;98.52;101189.09;5052301;28;20522;-49
2022/12/12 10:59:27;;;;;;;118.63;46.22;;;;;;;-1.03;97.46;101191.22;5052358;28;20075;-49
2022/12/12 11:01:58;;;;;;;119.88;44.63;;;;;;;-0.86;95.18;101189.19;5052139;28;20411;-47
2022/12/12 11:04:26;;;;;;;112.43;42.65;;;;;;;-0.75;94.57;101192.56;5051744;28;20807;-50
2022/12/12 11:06:52;;;;;;;;;;;;;;;-0.48;95.68;101185.44;5052424;28;20035;-49
2022/12/12 11:09:20;;;;;;;119.75;42.55;;;;;;;-0.34;94.69;101184.88;5052563;28;19959;-47
2022/12/12 11:12:07;;;;;;;121.75;45.80;;;;;;;-0.10;92.62;101182.50;5050394;28;20131;-50
2022/12/12 11:14:38;;;;;;;124.35;49.45;;;;;;;0.06;91.27;101179.50;5052144;28;20036;-50
2022/12/12 11:17:33;;;;;;;124.45;45.03;;;;;;;0.15;92.06;101176.00;5055331;28;20495;-46
2022/12/12 11:20:01;;;;;;;129.50;47.92;;;;;;;0.08;88.17;101180.47;5051090;28;20037;-50
2022/12/12 11:22:30;;;;;;;121.30;42.45;;;;;;;0.19;87.20;101181.31;5056546;28;20525;-49
2022/12/12 11:24:56;;;;;;;121.03;43.88;;;;;;;0.14;87.59;101175.88;5056129;28;20468;-49